sensor_id;sensor_type;location;lat;lon;timestamp;temperature;humidity
16532;DHT22;66872;63.142;14.482;2024-02-21T00:02:08;14.80;39.40
16532;DHT22;66872;63.142;14.482;2024-02-21T00:04:33;14.90;39.50
16532;DHT22;66872;63.142;14.482;2024-02-21T00:07:00;14.90;39.30
16532;DHT22;66872;63.142;14.482;2024-02-21T00:09:26;14.90;39.30
16532;DHT22;66872;63.142;14.482;2024-02-21T00:11:51;14.90;39.30
16532;DHT22;66872;63.142;14.482;2024-02-21T00:14:17;14.90;39.30
16532;DHT22;66872;63.142;14.482;2024-02-21T00:16:43;14.90;39.50
16532;DHT22;66872;63.142;14.482;2024-02-21T00:19:08;14.90;39.50
16532;DHT22;66872;63.142;14.482;2024-02-21T00:21:34;14.80;39.30
16532;DHT22;66872;63.142;14.482;2024-02-21T00:24:00;14.80;39.30
16532;DHT22;66872;63.142;14.482;2024-02-21T00:26:25;14.90;39.50
16532;DHT22;66872;63.142;14.482;2024-02-21T00:28:51;14.90;39.50
16532;DHT22;66872;63.142;14.482;2024-02-21T00:31:17;14.80;39.30
16532;DHT22;66872;63.142;14.482;2024-02-21T00:33:42;14.80;39.40
16532;DHT22;66872;63.142;14.482;2024-02-21T00:36:08;14.80;39.40
16532;DHT22;66872;63.142;14.482;2024-02-21T00:38:34;14.80;39.40
16532;DHT22;66872;63.142;14.482;2024-02-21T00:40:59;14.80;39.40
16532;DHT22;66872;63.142;14.482;2024-02-21T00:43:25;14.80;39.50
16532;DHT22;66872;63.142;14.482;2024-02-21T00:45:51;14.80;39.40
16532;DHT22;66872;63.142;14.482;2024-02-21T00:48:16;14.80;39.50
16532;DHT22;66872;63.142;14.482;2024-02-21T00:50:42;14.80;39.50
16532;DHT22;66872;63.142;14.482;2024-02-21T00:53:07;14.80;39.50
16532;DHT22;66872;63.142;14.482;2024-02-21T00:55:34;14.80;39.50
16532;DHT22;66872;63.142;14.482;2024-02-21T00:58:00;14.80;39.50
16532;DHT22;66872;63.142;14.482;2024-02-21T01:00:26;14.80;39.50
16532;DHT22;66872;63.142;14.482;2024-02-21T01:02:51;14.80;39.60
16532;DHT22;66872;63.142;14.482;2024-02-21T01:05:17;14.80;39.40
16532;DHT22;66872;63.142;14.482;2024-02-21T01:07:42;14.80;39.40
16532;DHT22;66872;63.142;14.482;2024-02-21T01:10:08;14.80;39.40
16532;DHT22;66872;63.142;14.482;2024-02-21T01:12:34;14.90;39.50
16532;DHT22;66872;63.142;14.482;2024-02-21T01:15:00;14.90;39.50
16532;DHT22;66872;63.142;14.482;2024-02-21T01:17:26;14.80;39.50
16532;DHT22;66872;63.142;14.482;2024-02-21T01:19:51;14.80;39.50
16532;DHT22;66872;63.142;14.482;2024-02-21T01:22:17;14.80;39.50
16532;DHT22;66872;63.142;14.482;2024-02-21T01:24:43;14.80;39.50
16532;DHT22;66872;63.142;14.482;2024-02-21T01:27:09;14.80;39.40
16532;DHT22;66872;63.142;14.482;2024-02-21T01:29:35;14.80;39.40
16532;DHT22;66872;63.142;14.482;2024-02-21T01:32:00;14.80;39.50
16532;DHT22;66872;63.142;14.482;2024-02-21T01:34:26;14.80;39.40
16532;DHT22;66872;63.142;14.482;2024-02-21T01:36:52;14.80;39.40
16532;DHT22;66872;63.142;14.482;2024-02-21T01:39:17;14.90;39.50
16532;DHT22;66872;63.142;14.482;2024-02-21T01:41:43;14.90;39.50
16532;DHT22;66872;63.142;14.482;2024-02-21T01:44:09;14.80;39.40
16532;DHT22;66872;63.142;14.482;2024-02-21T01:46:35;14.80;39.40
16532;DHT22;66872;63.142;14.482;2024-02-21T01:49:00;14.80;39.40
16532;DHT22;66872;63.142;14.482;2024-02-21T01:51:27;14.80;39.50
16532;DHT22;66872;63.142;14.482;2024-02-21T01:53:53;14.90;39.40
16532;DHT22;66872;63.142;14.482;2024-02-21T01:56:20;14.90;39.50
16532;DHT22;66872;63.142;14.482;2024-02-21T01:58:47;14.90;39.40
16532;DHT22;66872;63.142;14.482;2024-02-21T02:01:13;14.90;39.40
16532;DHT22;66872;63.142;14.482;2024-02-21T02:03:39;14.80;39.30
16532;DHT22;66872;63.142;14.482;2024-02-21T02:06:06;14.80;39.40
16532;DHT22;66872;63.142;14.482;2024-02-21T02:08:34;14.80;39.40
16532;DHT22;66872;63.142;14.482;2024-02-21T02:11:00;14.80;39.50
16532;DHT22;66872;63.142;14.482;2024-02-21T02:13:27;14.80;39.40
16532;DHT22;66872;63.142;14.482;2024-02-21T02:15:52;14.80;39.40
16532;DHT22;66872;63.142;14.482;2024-02-21T02:18:19;14.90;39.40
16532;DHT22;66872;63.142;14.482;2024-02-21T02:20:45;14.80;39.30
16532;DHT22;66872;63.142;14.482;2024-02-21T02:23:17;14.80;39.30
16532;DHT22;66872;63.142;14.482;2024-02-21T02:25:43;14.80;39.20
16532;DHT22;66872;63.142;14.482;2024-02-21T02:28:09;14.80;39.20
16532;DHT22;66872;63.142;14.482;2024-02-21T02:30:38;14.80;39.30
16532;DHT22;66872;63.142;14.482;2024-02-21T02:33:04;14.80;39.40
16532;DHT22;66872;63.142;14.482;2024-02-21T02:35:30;14.80;39.40
16532;DHT22;66872;63.142;14.482;2024-02-21T02:37:56;14.80;39.10
16532;DHT22;66872;63.142;14.482;2024-02-21T02:40:22;14.80;39.30
16532;DHT22;66872;63.142;14.482;2024-02-21T02:42:48;14.80;39.30
16532;DHT22;66872;63.142;14.482;2024-02-21T02:45:18;14.80;39.30
16532;DHT22;66872;63.142;14.482;2024-02-21T02:47:46;14.80;39.40
16532;DHT22;66872;63.142;14.482;2024-02-21T02:50:13;14.80;39.30
16532;DHT22;66872;63.142;14.482;2024-02-21T02:52:38;14.90;39.40
16532;DHT22;66872;63.142;14.482;2024-02-21T02:55:05;14.80;39.20
16532;DHT22;66872;63.142;14.482;2024-02-21T02:57:31;14.90;40.00
16532;DHT22;66872;63.142;14.482;2024-02-21T02:59:57;14.90;39.30
16532;DHT22;66872;63.142;14.482;2024-02-21T03:02:23;14.90;39.30
16532;DHT22;66872;63.142;14.482;2024-02-21T03:04:49;14.80;39.20
16532;DHT22;66872;63.142;14.482;2024-02-21T03:07:15;14.80;39.30
16532;DHT22;66872;63.142;14.482;2024-02-21T03:09:41;14.90;39.30
16532;DHT22;66872;63.142;14.482;2024-02-21T03:12:10;14.80;39.30
16532;DHT22;66872;63.142;14.482;2024-02-21T03:14:36;14.90;39.30
16532;DHT22;66872;63.142;14.482;2024-02-21T03:17:03;14.90;39.20
16532;DHT22;66872;63.142;14.482;2024-02-21T03:19:29;14.90;39.30
16532;DHT22;66872;63.142;14.482;2024-02-21T03:21:55;14.80;39.30
16532;DHT22;66872;63.142;14.482;2024-02-21T03:24:21;14.90;39.30
16532;DHT22;66872;63.142;14.482;2024-02-21T03:26:47;14.90;39.30
16532;DHT22;66872;63.142;14.482;2024-02-21T03:29:16;14.80;39.20
16532;DHT22;66872;63.142;14.482;2024-02-21T03:31:42;14.90;39.30
16532;DHT22;66872;63.142;14.482;2024-02-21T03:34:09;14.80;39.20
16532;DHT22;66872;63.142;14.482;2024-02-21T03:36:35;14.80;39.20
16532;DHT22;66872;63.142;14.482;2024-02-21T03:39:01;14.80;39.10
16532;DHT22;66872;63.142;14.482;2024-02-21T03:41:27;14.80;39.30
16532;DHT22;66872;63.142;14.482;2024-02-21T03:43:52;14.80;39.20
16532;DHT22;66872;63.142;14.482;2024-02-21T03:46:18;14.90;39.30
16532;DHT22;66872;63.142;14.482;2024-02-21T03:48:43;14.80;39.20
16532;DHT22;66872;63.142;14.482;2024-02-21T03:51:09;14.80;39.20
16532;DHT22;66872;63.142;14.482;2024-02-21T03:53:35;14.80;39.20
16532;DHT22;66872;63.142;14.482;2024-02-21T03:56:02;14.80;39.30
16532;DHT22;66872;63.142;14.482;2024-02-21T03:58:32;14.90;39.30
16532;DHT22;66872;63.142;14.482;2024-02-21T04:01:00;14.90;39.30
16532;DHT22;66872;63.142;14.482;2024-02-21T04:03:27;14.90;39.30
16532;DHT22;66872;63.142;14.482;2024-02-21T04:05:53;14.90;39.20
16532;DHT22;66872;63.142;14.482;2024-02-21T04:08:18;14.80;39.10
16532;DHT22;66872;63.142;14.482;2024-02-21T04:10:44;14.80;39.20
16532;DHT22;66872;63.142;14.482;2024-02-21T04:13:10;14.80;39.20
16532;DHT22;66872;63.142;14.482;2024-02-21T04:15:36;14.90;39.20
16532;DHT22;66872;63.142;14.482;2024-02-21T04:18:02;14.80;39.10
16532;DHT22;66872;63.142;14.482;2024-02-21T04:20:29;14.90;39.20
16532;DHT22;66872;63.142;14.482;2024-02-21T04:22:55;14.80;39.10
16532;DHT22;66872;63.142;14.482;2024-02-21T04:25:20;14.90;39.20
16532;DHT22;66872;63.142;14.482;2024-02-21T04:27:46;14.80;39.20
16532;DHT22;66872;63.142;14.482;2024-02-21T04:30:12;14.80;39.20
16532;DHT22;66872;63.142;14.482;2024-02-21T04:32:38;14.80;39.20
16532;DHT22;66872;63.142;14.482;2024-02-21T04:35:04;14.80;39.20
16532;DHT22;66872;63.142;14.482;2024-02-21T04:37:30;14.80;39.30
16532;DHT22;66872;63.142;14.482;2024-02-21T04:39:56;14.80;39.30
16532;DHT22;66872;63.142;14.482;2024-02-21T04:42:22;14.80;39.20
16532;DHT22;66872;63.142;14.482;2024-02-21T04:44:48;14.80;39.20
16532;DHT22;66872;63.142;14.482;2024-02-21T04:47:13;14.80;39.20
16532;DHT22;66872;63.142;14.482;2024-02-21T04:49:39;14.80;39.10
16532;DHT22;66872;63.142;14.482;2024-02-21T04:52:05;14.80;39.10
16532;DHT22;66872;63.142;14.482;2024-02-21T04:54:31;14.80;39.10
16532;DHT22;66872;63.142;14.482;2024-02-21T04:56:56;14.80;39.10
16532;DHT22;66872;63.142;14.482;2024-02-21T04:59:22;14.90;39.20
16532;DHT22;66872;63.142;14.482;2024-02-21T05:01:48;14.80;39.10
16532;DHT22;66872;63.142;14.482;2024-02-21T05:04:13;14.80;39.10
16532;DHT22;66872;63.142;14.482;2024-02-21T05:06:42;14.80;39.10
16532;DHT22;66872;63.142;14.482;2024-02-21T05:09:09;14.80;39.10
16532;DHT22;66872;63.142;14.482;2024-02-21T05:11:35;14.80;39.10
16532;DHT22;66872;63.142;14.482;2024-02-21T05:14:01;14.80;39.20
16532;DHT22;66872;63.142;14.482;2024-02-21T05:16:26;14.80;39.70
16532;DHT22;66872;63.142;14.482;2024-02-21T05:18:52;14.80;39.10
16532;DHT22;66872;63.142;14.482;2024-02-21T05:21:18;14.80;39.10
16532;DHT22;66872;63.142;14.482;2024-02-21T05:23:44;14.80;39.10
16532;DHT22;66872;63.142;14.482;2024-02-21T05:26:10;14.80;39.20
16532;DHT22;66872;63.142;14.482;2024-02-21T05:28:36;14.80;39.80
16532;DHT22;66872;63.142;14.482;2024-02-21T05:31:01;14.80;39.20
16532;DHT22;66872;63.142;14.482;2024-02-21T05:33:27;14.70;39.10
16532;DHT22;66872;63.142;14.482;2024-02-21T05:35:52;14.70;39.20
16532;DHT22;66872;63.142;14.482;2024-02-21T05:38:18;14.70;39.20
16532;DHT22;66872;63.142;14.482;2024-02-21T05:40:47;14.70;39.10
16532;DHT22;66872;63.142;14.482;2024-02-21T05:43:14;14.80;39.20
16532;DHT22;66872;63.142;14.482;2024-02-21T05:45:39;14.80;39.20
16532;DHT22;66872;63.142;14.482;2024-02-21T05:48:06;14.70;39.10
16532;DHT22;66872;63.142;14.482;2024-02-21T05:50:31;14.70;39.20
16532;DHT22;66872;63.142;14.482;2024-02-21T05:52:58;14.70;39.10
16532;DHT22;66872;63.142;14.482;2024-02-21T05:55:24;14.70;39.10
16532;DHT22;66872;63.142;14.482;2024-02-21T05:57:53;14.70;39.10
16532;DHT22;66872;63.142;14.482;2024-02-21T06:00:19;14.70;39.20
16532;DHT22;66872;63.142;14.482;2024-02-21T06:02:45;14.70;39.20
16532;DHT22;66872;63.142;14.482;2024-02-21T06:05:10;14.70;39.20
16532;DHT22;66872;63.142;14.482;2024-02-21T06:07:36;14.70;39.10
16532;DHT22;66872;63.142;14.482;2024-02-21T06:10:02;14.70;39.10
16532;DHT22;66872;63.142;14.482;2024-02-21T06:12:28;14.70;39.20
16532;DHT22;66872;63.142;14.482;2024-02-21T06:14:54;14.70;39.10
16532;DHT22;66872;63.142;14.482;2024-02-21T06:17:19;14.70;39.10
16532;DHT22;66872;63.142;14.482;2024-02-21T06:19:45;14.70;39.10
16532;DHT22;66872;63.142;14.482;2024-02-21T06:22:11;14.80;39.10
16532;DHT22;66872;63.142;14.482;2024-02-21T06:24:37;14.80;39.10
16532;DHT22;66872;63.142;14.482;2024-02-21T06:27:06;14.70;39.10
16532;DHT22;66872;63.142;14.482;2024-02-21T06:29:35;14.80;38.90
16532;DHT22;66872;63.142;14.482;2024-02-21T06:32:01;14.80;38.50
16532;DHT22;66872;63.142;14.482;2024-02-21T06:34:27;14.90;37.90
16532;DHT22;66872;63.142;14.482;2024-02-21T06:36:52;14.90;38.00
16532;DHT22;66872;63.142;14.482;2024-02-21T06:39:18;14.90;38.10
16532;DHT22;66872;63.142;14.482;2024-02-21T06:41:44;14.80;37.90
16532;DHT22;66872;63.142;14.482;2024-02-21T06:44:09;14.90;38.00
16532;DHT22;66872;63.142;14.482;2024-02-21T06:46:35;14.90;38.00
16532;DHT22;66872;63.142;14.482;2024-02-21T06:49:02;14.90;37.90
16532;DHT22;66872;63.142;14.482;2024-02-21T06:51:29;14.90;37.90
16532;DHT22;66872;63.142;14.482;2024-02-21T06:53:55;15.00;37.90
16532;DHT22;66872;63.142;14.482;2024-02-21T06:56:24;15.00;37.90
16532;DHT22;66872;63.142;14.482;2024-02-21T06:58:54;15.00;37.80
16532;DHT22;66872;63.142;14.482;2024-02-21T07:01:20;15.00;37.80
16532;DHT22;66872;63.142;14.482;2024-02-21T07:03:46;15.00;37.70
16532;DHT22;66872;63.142;14.482;2024-02-21T07:06:11;15.10;37.80
16532;DHT22;66872;63.142;14.482;2024-02-21T07:08:38;15.00;37.70
16532;DHT22;66872;63.142;14.482;2024-02-21T07:11:04;15.00;37.70
16532;DHT22;66872;63.142;14.482;2024-02-21T07:13:30;15.10;37.70
16532;DHT22;66872;63.142;14.482;2024-02-21T07:15:56;15.10;37.60
16532;DHT22;66872;63.142;14.482;2024-02-21T07:18:21;15.10;37.70
16532;DHT22;66872;63.142;14.482;2024-02-21T07:20:47;15.10;37.70
16532;DHT22;66872;63.142;14.482;2024-02-21T07:23:13;15.10;37.60
16532;DHT22;66872;63.142;14.482;2024-02-21T07:25:39;15.10;37.60
16532;DHT22;66872;63.142;14.482;2024-02-21T07:28:05;15.10;37.60
16532;DHT22;66872;63.142;14.482;2024-02-21T07:30:31;15.10;37.60
16532;DHT22;66872;63.142;14.482;2024-02-21T07:32:56;15.10;37.50
16532;DHT22;66872;63.142;14.482;2024-02-21T07:35:22;15.10;37.50
16532;DHT22;66872;63.142;14.482;2024-02-21T07:37:48;15.10;37.40
16532;DHT22;66872;63.142;14.482;2024-02-21T07:40:17;15.10;37.40
16532;DHT22;66872;63.142;14.482;2024-02-21T07:42:43;15.10;37.40
16532;DHT22;66872;63.142;14.482;2024-02-21T07:45:09;15.10;37.40
16532;DHT22;66872;63.142;14.482;2024-02-21T07:47:36;15.10;37.40
16532;DHT22;66872;63.142;14.482;2024-02-21T07:50:05;15.20;37.40
16532;DHT22;66872;63.142;14.482;2024-02-21T07:52:31;15.20;37.40
16532;DHT22;66872;63.142;14.482;2024-02-21T07:54:57;15.20;37.40
16532;DHT22;66872;63.142;14.482;2024-02-21T07:57:23;15.20;37.40
16532;DHT22;66872;63.142;14.482;2024-02-21T07:59:48;15.20;37.40
16532;DHT22;66872;63.142;14.482;2024-02-21T08:02:15;15.20;37.40
16532;DHT22;66872;63.142;14.482;2024-02-21T08:04:41;15.10;37.30
16532;DHT22;66872;63.142;14.482;2024-02-21T08:07:06;15.20;37.40
16532;DHT22;66872;63.142;14.482;2024-02-21T08:09:32;15.20;37.30
16532;DHT22;66872;63.142;14.482;2024-02-21T08:11:58;15.20;37.40
16532;DHT22;66872;63.142;14.482;2024-02-21T08:14:24;15.20;37.30
16532;DHT22;66872;63.142;14.482;2024-02-21T08:16:51;15.20;37.30
16532;DHT22;66872;63.142;14.482;2024-02-21T08:19:19;15.20;37.20
16532;DHT22;66872;63.142;14.482;2024-02-21T08:21:45;15.20;37.20
16532;DHT22;66872;63.142;14.482;2024-02-21T08:24:13;15.20;37.20
16532;DHT22;66872;63.142;14.482;2024-02-21T08:26:41;15.20;37.20
16532;DHT22;66872;63.142;14.482;2024-02-21T08:29:07;15.20;37.10
16532;DHT22;66872;63.142;14.482;2024-02-21T08:31:32;15.20;37.10
16532;DHT22;66872;63.142;14.482;2024-02-21T08:34:00;15.20;37.10
16532;DHT22;66872;63.142;14.482;2024-02-21T08:36:33;15.20;37.10
16532;DHT22;66872;63.142;14.482;2024-02-21T08:38:59;15.20;37.10
16532;DHT22;66872;63.142;14.482;2024-02-21T08:41:26;15.20;37.10
16532;DHT22;66872;63.142;14.482;2024-02-21T08:43:52;15.20;37.10
16532;DHT22;66872;63.142;14.482;2024-02-21T08:46:19;15.20;37.10
16532;DHT22;66872;63.142;14.482;2024-02-21T08:48:46;15.20;37.10
16532;DHT22;66872;63.142;14.482;2024-02-21T08:51:13;15.20;37.10
16532;DHT22;66872;63.142;14.482;2024-02-21T08:53:38;15.20;37.10
16532;DHT22;66872;63.142;14.482;2024-02-21T08:56:05;15.20;37.10
16532;DHT22;66872;63.142;14.482;2024-02-21T08:58:31;15.20;37.20
16532;DHT22;66872;63.142;14.482;2024-02-21T09:00:56;15.10;37.10
16532;DHT22;66872;63.142;14.482;2024-02-21T09:03:22;15.20;37.30
16532;DHT22;66872;63.142;14.482;2024-02-21T09:05:48;15.20;37.20
16532;DHT22;66872;63.142;14.482;2024-02-21T09:08:14;15.10;37.20
16532;DHT22;66872;63.142;14.482;2024-02-21T09:10:40;15.20;37.20
16532;DHT22;66872;63.142;14.482;2024-02-21T09:13:06;15.20;37.20
16532;DHT22;66872;63.142;14.482;2024-02-21T09:15:33;15.10;37.10
16532;DHT22;66872;63.142;14.482;2024-02-21T09:17:59;15.10;37.20
16532;DHT22;66872;63.142;14.482;2024-02-21T09:20:24;15.10;37.20
16532;DHT22;66872;63.142;14.482;2024-02-21T09:22:50;15.10;37.20
16532;DHT22;66872;63.142;14.482;2024-02-21T09:25:17;15.10;37.30
16532;DHT22;66872;63.142;14.482;2024-02-21T09:27:44;15.10;37.30
16532;DHT22;66872;63.142;14.482;2024-02-21T09:30:10;15.10;37.40
16532;DHT22;66872;63.142;14.482;2024-02-21T09:32:36;15.10;37.30
16532;DHT22;66872;63.142;14.482;2024-02-21T09:35:03;15.10;37.40
16532;DHT22;66872;63.142;14.482;2024-02-21T09:37:28;15.10;37.40
16532;DHT22;66872;63.142;14.482;2024-02-21T09:39:54;15.10;37.40
16532;DHT22;66872;63.142;14.482;2024-02-21T09:42:21;15.10;37.40
16532;DHT22;66872;63.142;14.482;2024-02-21T09:44:50;15.10;37.40
16532;DHT22;66872;63.142;14.482;2024-02-21T09:49:42;15.10;37.40
16532;DHT22;66872;63.142;14.482;2024-02-21T09:52:09;15.10;37.40
16532;DHT22;66872;63.142;14.482;2024-02-21T09:54:35;15.10;37.40
16532;DHT22;66872;63.142;14.482;2024-02-21T09:57:02;15.00;37.30
16532;DHT22;66872;63.142;14.482;2024-02-21T09:59:30;15.10;37.40
16532;DHT22;66872;63.142;14.482;2024-02-21T10:01:56;15.10;37.30
16532;DHT22;66872;63.142;14.482;2024-02-21T10:04:23;15.10;37.40
16532;DHT22;66872;63.142;14.482;2024-02-21T10:06:49;15.10;37.40
16532;DHT22;66872;63.142;14.482;2024-02-21T10:09:27;15.10;37.30
16532;DHT22;66872;63.142;14.482;2024-02-21T10:11:54;15.10;37.20
16532;DHT22;66872;63.142;14.482;2024-02-21T10:14:19;15.10;37.20
16532;DHT22;66872;63.142;14.482;2024-02-21T10:16:47;15.10;37.30
16532;DHT22;66872;63.142;14.482;2024-02-21T10:19:20;15.20;37.90
16532;DHT22;66872;63.142;14.482;2024-02-21T10:22:18;15.20;37.20
16532;DHT22;66872;63.142;14.482;2024-02-21T10:24:43;15.20;37.10
16532;DHT22;66872;63.142;14.482;2024-02-21T10:27:09;15.20;37.10
16532;DHT22;66872;63.142;14.482;2024-02-21T10:29:39;15.20;37.10
16532;DHT22;66872;63.142;14.482;2024-02-21T10:34:34;15.20;36.80
16532;DHT22;66872;63.142;14.482;2024-02-21T10:37:02;15.30;36.80
16532;DHT22;66872;63.142;14.482;2024-02-21T10:39:27;15.30;36.10
16532;DHT22;66872;63.142;14.482;2024-02-21T10:41:54;15.30;35.80
16532;DHT22;66872;63.142;14.482;2024-02-21T10:44:22;15.30;35.90
16532;DHT22;66872;63.142;14.482;2024-02-21T10:46:49;15.30;35.90
16532;DHT22;66872;63.142;14.482;2024-02-21T10:49:22;15.30;36.00
16532;DHT22;66872;63.142;14.482;2024-02-21T10:51:55;15.30;36.10
16532;DHT22;66872;63.142;14.482;2024-02-21T10:57:03;15.30;36.40
16532;DHT22;66872;63.142;14.482;2024-02-21T10:59:30;15.30;36.50
16532;DHT22;66872;63.142;14.482;2024-02-21T11:01:57;15.30;36.60
16532;DHT22;66872;63.142;14.482;2024-02-21T11:04:24;15.30;36.70
16532;DHT22;66872;63.142;14.482;2024-02-21T11:06:51;15.30;36.70
16532;DHT22;66872;63.142;14.482;2024-02-21T11:09:17;15.30;36.70
16532;DHT22;66872;63.142;14.482;2024-02-21T11:11:46;15.30;36.80
16532;DHT22;66872;63.142;14.482;2024-02-21T11:14:18;15.30;36.90
16532;DHT22;66872;63.142;14.482;2024-02-21T11:16:44;15.30;36.90
16532;DHT22;66872;63.142;14.482;2024-02-21T11:21:45;15.40;37.00
16532;DHT22;66872;63.142;14.482;2024-02-21T11:24:11;15.30;37.00
16532;DHT22;66872;63.142;14.482;2024-02-21T11:26:37;15.40;37.10
16532;DHT22;66872;63.142;14.482;2024-02-21T11:29:03;15.40;37.10
16532;DHT22;66872;63.142;14.482;2024-02-21T11:31:40;15.40;37.20
16532;DHT22;66872;63.142;14.482;2024-02-21T11:34:12;15.40;37.20
16532;DHT22;66872;63.142;14.482;2024-02-21T11:36:51;15.40;37.20
16532;DHT22;66872;63.142;14.482;2024-02-21T11:39:24;15.40;37.20
16532;DHT22;66872;63.142;14.482;2024-02-21T11:44:29;15.40;37.40
16532;DHT22;66872;63.142;14.482;2024-02-21T11:46:55;15.40;37.30
16532;DHT22;66872;63.142;14.482;2024-02-21T11:49:21;15.40;37.30
16532;DHT22;66872;63.142;14.482;2024-02-21T11:51:47;15.40;37.30
16532;DHT22;66872;63.142;14.482;2024-02-21T11:54:14;15.40;37.30
16532;DHT22;66872;63.142;14.482;2024-02-21T11:56:42;15.50;37.30
16532;DHT22;66872;63.142;14.482;2024-02-21T11:59:08;15.40;37.20
16532;DHT22;66872;63.142;14.482;2024-02-21T12:01:34;15.40;37.30
16532;DHT22;66872;63.142;14.482;2024-02-21T12:04:00;15.40;37.30
16532;DHT22;66872;63.142;14.482;2024-02-21T12:06:25;15.40;37.30
16532;DHT22;66872;63.142;14.482;2024-02-21T12:08:51;15.50;37.40
16532;DHT22;66872;63.142;14.482;2024-02-21T12:11:22;15.50;37.30
16532;DHT22;66872;63.142;14.482;2024-02-21T12:14:06;15.50;37.40
16532;DHT22;66872;63.142;14.482;2024-02-21T12:16:32;15.50;37.40
16532;DHT22;66872;63.142;14.482;2024-02-21T12:19:01;15.50;37.40
16532;DHT22;66872;63.142;14.482;2024-02-21T12:21:32;15.50;37.40
16532;DHT22;66872;63.142;14.482;2024-02-21T12:24:00;15.50;37.50
16532;DHT22;66872;63.142;14.482;2024-02-21T12:26:26;15.50;37.50
16532;DHT22;66872;63.142;14.482;2024-02-21T12:28:54;15.50;37.40
16532;DHT22;66872;63.142;14.482;2024-02-21T12:31:21;15.50;37.40
16532;DHT22;66872;63.142;14.482;2024-02-21T12:33:47;15.50;37.40
16532;DHT22;66872;63.142;14.482;2024-02-21T12:36:13;15.50;37.40
16532;DHT22;66872;63.142;14.482;2024-02-21T12:38:40;15.50;37.40
16532;DHT22;66872;63.142;14.482;2024-02-21T12:41:05;15.50;37.30
16532;DHT22;66872;63.142;14.482;2024-02-21T12:43:33;15.50;37.30
16532;DHT22;66872;63.142;14.482;2024-02-21T12:45:59;15.50;37.30
16532;DHT22;66872;63.142;14.482;2024-02-21T12:48:25;15.50;37.30
16532;DHT22;66872;63.142;14.482;2024-02-21T12:50:51;15.50;37.20
16532;DHT22;66872;63.142;14.482;2024-02-21T12:53:21;15.50;37.20
16532;DHT22;66872;63.142;14.482;2024-02-21T12:55:48;15.50;37.20
16532;DHT22;66872;63.142;14.482;2024-02-21T12:58:14;15.50;37.20
16532;DHT22;66872;63.142;14.482;2024-02-21T13:00:40;15.50;37.20
16532;DHT22;66872;63.142;14.482;2024-02-21T13:03:06;15.60;37.30
16532;DHT22;66872;63.142;14.482;2024-02-21T13:05:32;15.50;37.20
16532;DHT22;66872;63.142;14.482;2024-02-21T13:07:58;15.60;37.30
16532;DHT22;66872;63.142;14.482;2024-02-21T13:10:24;15.50;37.20
16532;DHT22;66872;63.142;14.482;2024-02-21T13:12:50;15.50;37.50
16532;DHT22;66872;63.142;14.482;2024-02-21T13:15:16;15.50;37.20
16532;DHT22;66872;63.142;14.482;2024-02-21T13:17:44;15.50;37.20
16532;DHT22;66872;63.142;14.482;2024-02-21T13:20:10;15.50;37.20
16532;DHT22;66872;63.142;14.482;2024-02-21T13:22:37;15.50;37.20
16532;DHT22;66872;63.142;14.482;2024-02-21T13:25:03;15.60;37.20
16532;DHT22;66872;63.142;14.482;2024-02-21T13:27:29;15.60;37.20
16532;DHT22;66872;63.142;14.482;2024-02-21T13:29:55;15.60;37.20
16532;DHT22;66872;63.142;14.482;2024-02-21T13:32:20;15.60;37.20
16532;DHT22;66872;63.142;14.482;2024-02-21T13:34:46;15.60;37.20
16532;DHT22;66872;63.142;14.482;2024-02-21T13:37:12;15.60;37.20
16532;DHT22;66872;63.142;14.482;2024-02-21T13:39:39;15.60;37.20
16532;DHT22;66872;63.142;14.482;2024-02-21T13:42:05;15.60;37.10
16532;DHT22;66872;63.142;14.482;2024-02-21T13:44:31;15.60;37.10
16532;DHT22;66872;63.142;14.482;2024-02-21T13:46:57;15.60;37.10
16532;DHT22;66872;63.142;14.482;2024-02-21T13:49:23;15.60;37.20
16532;DHT22;66872;63.142;14.482;2024-02-21T13:51:49;15.60;37.10
16532;DHT22;66872;63.142;14.482;2024-02-21T13:54:14;15.60;37.10
16532;DHT22;66872;63.142;14.482;2024-02-21T13:56:42;15.50;37.10
16532;DHT22;66872;63.142;14.482;2024-02-21T13:59:08;15.60;37.20
16532;DHT22;66872;63.142;14.482;2024-02-21T14:01:34;15.60;37.10
16532;DHT22;66872;63.142;14.482;2024-02-21T14:04:01;15.60;37.00
16532;DHT22;66872;63.142;14.482;2024-02-21T14:06:27;15.60;37.00
16532;DHT22;66872;63.142;14.482;2024-02-21T14:08:52;15.60;36.90
16532;DHT22;66872;63.142;14.482;2024-02-21T14:11:18;15.60;36.90
16532;DHT22;66872;63.142;14.482;2024-02-21T14:13:44;15.60;36.90
16532;DHT22;66872;63.142;14.482;2024-02-21T14:16:11;15.60;36.90
16532;DHT22;66872;63.142;14.482;2024-02-21T14:18:42;15.60;37.00
16532;DHT22;66872;63.142;14.482;2024-02-21T14:21:08;15.60;37.00
16532;DHT22;66872;63.142;14.482;2024-02-21T14:23:38;15.60;36.90
16532;DHT22;66872;63.142;14.482;2024-02-21T14:26:04;15.60;36.90
16532;DHT22;66872;63.142;14.482;2024-02-21T14:28:30;15.60;37.00
16532;DHT22;66872;63.142;14.482;2024-02-21T14:30:56;15.60;36.90
16532;DHT22;66872;63.142;14.482;2024-02-21T14:33:26;15.60;36.90
16532;DHT22;66872;63.142;14.482;2024-02-21T14:35:52;15.60;37.00
16532;DHT22;66872;63.142;14.482;2024-02-21T14:38:19;15.60;36.90
16532;DHT22;66872;63.142;14.482;2024-02-21T14:40:45;15.60;37.00
16532;DHT22;66872;63.142;14.482;2024-02-21T14:43:11;15.60;37.00
16532;DHT22;66872;63.142;14.482;2024-02-21T14:45:36;15.60;36.90
16532;DHT22;66872;63.142;14.482;2024-02-21T14:48:04;15.60;36.90
16532;DHT22;66872;63.142;14.482;2024-02-21T14:50:30;15.60;36.90
16532;DHT22;66872;63.142;14.482;2024-02-21T14:52:55;15.60;36.90
16532;DHT22;66872;63.142;14.482;2024-02-21T14:55:21;15.60;36.90
16532;DHT22;66872;63.142;14.482;2024-02-21T14:57:47;15.60;36.90
16532;DHT22;66872;63.142;14.482;2024-02-21T15:00:13;15.60;36.90
16532;DHT22;66872;63.142;14.482;2024-02-21T15:02:38;15.60;36.90
16532;DHT22;66872;63.142;14.482;2024-02-21T15:05:04;15.60;36.80
16532;DHT22;66872;63.142;14.482;2024-02-21T15:07:31;15.60;36.90
16532;DHT22;66872;63.142;14.482;2024-02-21T15:09:57;15.60;36.90
16532;DHT22;66872;63.142;14.482;2024-02-21T15:12:23;15.60;36.80
16532;DHT22;66872;63.142;14.482;2024-02-21T15:14:49;15.60;36.80
16532;DHT22;66872;63.142;14.482;2024-02-21T15:17:15;15.50;36.80
16532;DHT22;66872;63.142;14.482;2024-02-21T15:19:41;15.50;36.80
16532;DHT22;66872;63.142;14.482;2024-02-21T15:22:10;15.50;36.90
16532;DHT22;66872;63.142;14.482;2024-02-21T15:24:40;15.50;36.90